sensor_id;sensor_type;location;lat;lon;timestamp;P1;durP1;ratioP1;P2;durP2;ratioP2
43606;SDS011;29197;44.788;10.366;2022-09-13T00:02:06;4.88;;;1.75;;
43606;SDS011;29197;44.788;10.366;2022-09-13T00:04:55;4.93;;;2.05;;
43606;SDS011;29197;44.788;10.366;2022-09-13T00:07:44;2.55;;;1.60;;
43606;SDS011;29197;44.788;10.366;2022-09-13T00:10:33;2.65;;;1.65;;
43606;SDS011;29197;44.788;10.366;2022-09-13T00:13:23;1.85;;;1.52;;
43606;SDS011;29197;44.788;10.366;2022-09-13T00:16:16;2.22;;;1.77;;
43606;SDS011;29197;44.788;10.366;2022-09-13T00:19:07;3.90;;;2.40;;
43606;SDS011;29197;44.788;10.366;2022-09-13T00:21:57;2.72;;;2.10;;
43606;SDS011;29197;44.788;10.366;2022-09-13T00:24:46;3.03;;;1.88;;
43606;SDS011;29197;44.788;10.366;2022-09-13T00:27:36;6.15;;;1.88;;
43606;SDS011;29197;44.788;10.366;2022-09-13T00:30:25;3.35;;;2.15;;
43606;SDS011;29197;44.788;10.366;2022-09-13T00:33:16;2.90;;;1.80;;
43606;SDS011;29197;44.788;10.366;2022-09-13T00:36:05;2.42;;;1.67;;
43606;SDS011;29197;44.788;10.366;2022-09-13T00:38:55;1.73;;;1.63;;
43606;SDS011;29197;44.788;10.366;2022-09-13T00:41:44;2.00;;;1.75;;
43606;SDS011;29197;44.788;10.366;2022-09-13T00:44:52;2.63;;;1.90;;
43606;SDS011;29197;44.788;10.366;2022-09-13T00:47:44;2.40;;;1.88;;
43606;SDS011;29197;44.788;10.366;2022-09-13T00:50:40;4.85;;;1.70;;
43606;SDS011;29197;44.788;10.366;2022-09-13T00:53:32;8.65;;;4.15;;
43606;SDS011;29197;44.788;10.366;2022-09-13T00:56:24;4.05;;;1.60;;
43606;SDS011;29197;44.788;10.366;2022-09-13T00:59:18;4.53;;;1.92;;
43606;SDS011;29197;44.788;10.366;2022-09-13T01:02:11;3.20;;;1.75;;
43606;SDS011;29197;44.788;10.366;2022-09-13T01:05:01;3.10;;;2.33;;
43606;SDS011;29197;44.788;10.366;2022-09-13T01:07:52;3.35;;;1.90;;
43606;SDS011;29197;44.788;10.366;2022-09-13T01:10:41;2.63;;;1.92;;
43606;SDS011;29197;44.788;10.366;2022-09-13T01:13:32;3.30;;;1.75;;
43606;SDS011;29197;44.788;10.366;2022-09-13T01:16:22;1.55;;;1.45;;
43606;SDS011;29197;44.788;10.366;2022-09-13T01:19:12;1.65;;;1.40;;
43606;SDS011;29197;44.788;10.366;2022-09-13T01:22:23;4.60;;;2.05;;
43606;SDS011;29197;44.788;10.366;2022-09-13T01:25:38;1.40;;;1.30;;
43606;SDS011;29197;44.788;10.366;2022-09-13T01:29:06;1.75;;;1.65;;
43606;SDS011;29197;44.788;10.366;2022-09-13T01:32:15;2.20;;;1.50;;
43606;SDS011;29197;44.788;10.366;2022-09-13T01:35:12;1.73;;;1.40;;
43606;SDS011;29197;44.788;10.366;2022-09-13T01:38:11;1.52;;;1.42;;
43606;SDS011;29197;44.788;10.366;2022-09-13T01:41:15;1.88;;;1.65;;
43606;SDS011;29197;44.788;10.366;2022-09-13T01:44:17;2.00;;;1.42;;
43606;SDS011;29197;44.788;10.366;2022-09-13T01:47:19;1.58;;;1.48;;
43606;SDS011;29197;44.788;10.366;2022-09-13T01:50:14;1.52;;;1.27;;
43606;SDS011;29197;44.788;10.366;2022-09-13T01:53:08;3.63;;;1.50;;
43606;SDS011;29197;44.788;10.366;2022-09-13T01:56:09;1.83;;;1.20;;
43606;SDS011;29197;44.788;10.366;2022-09-13T01:59:06;1.58;;;1.48;;
43606;SDS011;29197;44.788;10.366;2022-09-13T02:02:02;1.98;;;1.63;;
43606;SDS011;29197;44.788;10.366;2022-09-13T02:04:57;1.30;;;1.20;;
43606;SDS011;29197;44.788;10.366;2022-09-13T02:07:51;1.40;;;1.30;;
43606;SDS011;29197;44.788;10.366;2022-09-13T02:10:45;1.92;;;1.13;;
43606;SDS011;29197;44.788;10.366;2022-09-13T02:13:37;2.35;;;1.38;;
43606;SDS011;29197;44.788;10.366;2022-09-13T02:16:30;2.22;;;1.27;;
43606;SDS011;29197;44.788;10.366;2022-09-13T02:19:23;3.55;;;1.40;;
43606;SDS011;29197;44.788;10.366;2022-09-13T02:22:22;5.97;;;1.30;;
43606;SDS011;29197;44.788;10.366;2022-09-13T02:25:18;1.50;;;0.98;;
43606;SDS011;29197;44.788;10.366;2022-09-13T02:28:10;2.10;;;1.02;;
43606;SDS011;29197;44.788;10.366;2022-09-13T02:31:05;2.78;;;1.10;;
43606;SDS011;29197;44.788;10.366;2022-09-13T02:33:56;2.65;;;1.02;;
43606;SDS011;29197;44.788;10.366;2022-09-13T02:36:49;2.17;;;1.23;;
43606;SDS011;29197;44.788;10.366;2022-09-13T02:39:44;3.42;;;1.40;;
43606;SDS011;29197;44.788;10.366;2022-09-13T02:42:40;2.10;;;1.20;;
43606;SDS011;29197;44.788;10.366;2022-09-13T02:45:32;2.75;;;1.10;;
43606;SDS011;29197;44.788;10.366;2022-09-13T02:48:32;2.78;;;1.15;;
43606;SDS011;29197;44.788;10.366;2022-09-13T02:51:29;1.48;;;0.93;;
43606;SDS011;29197;44.788;10.366;2022-09-13T02:54:28;4.55;;;1.63;;
43606;SDS011;29197;44.788;10.366;2022-09-13T02:57:24;2.15;;;1.50;;
43606;SDS011;29197;44.788;10.366;2022-09-13T03:00:18;1.52;;;1.25;;
43606;SDS011;29197;44.788;10.366;2022-09-13T03:03:07;1.70;;;1.33;;
43606;SDS011;29197;44.788;10.366;2022-09-13T03:05:58;5.85;;;1.83;;
43606;SDS011;29197;44.788;10.366;2022-09-13T03:08:48;3.10;;;1.73;;
43606;SDS011;29197;44.788;10.366;2022-09-13T03:11:40;3.50;;;2.10;;
43606;SDS011;29197;44.788;10.366;2022-09-13T03:14:36;4.03;;;2.45;;
43606;SDS011;29197;44.788;10.366;2022-09-13T03:17:33;2.70;;;2.33;;
43606;SDS011;29197;44.788;10.366;2022-09-13T03:20:29;3.10;;;2.00;;
43606;SDS011;29197;44.788;10.366;2022-09-13T03:23:28;1.77;;;1.40;;
43606;SDS011;29197;44.788;10.366;2022-09-13T03:26:22;3.13;;;1.95;;
43606;SDS011;29197;44.788;10.366;2022-09-13T03:29:20;3.47;;;1.70;;
43606;SDS011;29197;44.788;10.366;2022-09-13T03:32:17;5.50;;;2.17;;
43606;SDS011;29197;44.788;10.366;2022-09-13T03:35:10;7.88;;;2.50;;
43606;SDS011;29197;44.788;10.366;2022-09-13T03:38:04;5.05;;;2.00;;
43606;SDS011;29197;44.788;10.366;2022-09-13T03:40:55;5.00;;;2.00;;
43606;SDS011;29197;44.788;10.366;2022-09-13T03:43:46;2.30;;;2.10;;
43606;SDS011;29197;44.788;10.366;2022-09-13T03:46:37;4.30;;;1.85;;
43606;SDS011;29197;44.788;10.366;2022-09-13T03:49:30;4.20;;;2.15;;
43606;SDS011;29197;44.788;10.366;2022-09-13T03:52:20;3.20;;;1.70;;
43606;SDS011;29197;44.788;10.366;2022-09-13T03:55:09;4.70;;;1.88;;
43606;SDS011;29197;44.788;10.366;2022-09-13T03:57:58;6.38;;;2.00;;
43606;SDS011;29197;44.788;10.366;2022-09-13T04:00:47;2.45;;;1.85;;
43606;SDS011;29197;44.788;10.366;2022-09-13T04:03:36;3.65;;;1.90;;
43606;SDS011;29197;44.788;10.366;2022-09-13T04:06:27;3.08;;;1.60;;
43606;SDS011;29197;44.788;10.366;2022-09-13T04:09:17;3.15;;;1.33;;
43606;SDS011;29197;44.788;10.366;2022-09-13T04:12:06;3.97;;;1.90;;
43606;SDS011;29197;44.788;10.366;2022-09-13T04:14:56;4.25;;;1.70;;
43606;SDS011;29197;44.788;10.366;2022-09-13T04:17:46;3.72;;;1.65;;
43606;SDS011;29197;44.788;10.366;2022-09-13T04:20:35;4.30;;;1.60;;
43606;SDS011;29197;44.788;10.366;2022-09-13T04:23:26;2.28;;;1.40;;
43606;SDS011;29197;44.788;10.366;2022-09-13T04:26:17;1.88;;;1.27;;
43606;SDS011;29197;44.788;10.366;2022-09-13T04:29:06;2.95;;;1.45;;
43606;SDS011;29197;44.788;10.366;2022-09-13T04:31:55;2.72;;;1.40;;
43606;SDS011;29197;44.788;10.366;2022-09-13T04:34:44;2.03;;;1.58;;
43606;SDS011;29197;44.788;10.366;2022-09-13T04:37:33;1.73;;;1.27;;
43606;SDS011;29197;44.788;10.366;2022-09-13T04:40:23;6.15;;;1.45;;
43606;SDS011;29197;44.788;10.366;2022-09-13T04:43:12;1.83;;;1.23;;
43606;SDS011;29197;44.788;10.366;2022-09-13T04:46:01;2.67;;;1.30;;
43606;SDS011;29197;44.788;10.366;2022-09-13T04:48:50;2.15;;;1.35;;
43606;SDS011;29197;44.788;10.366;2022-09-13T04:51:40;2.45;;;1.67;;
43606;SDS011;29197;44.788;10.366;2022-09-13T04:54:28;1.48;;;1.25;;
43606;SDS011;29197;44.788;10.366;2022-09-13T04:57:19;2.35;;;1.23;;
43606;SDS011;29197;44.788;10.366;2022-09-13T05:00:09;1.30;;;1.10;;
43606;SDS011;29197;44.788;10.366;2022-09-13T05:02:58;1.55;;;1.17;;
43606;SDS011;29197;44.788;10.366;2022-09-13T05:05:48;2.85;;;1.13;;
43606;SDS011;29197;44.788;10.366;2022-09-13T05:08:37;1.55;;;1.35;;
43606;SDS011;29197;44.788;10.366;2022-09-13T05:11:27;2.55;;;1.38;;
43606;SDS011;29197;44.788;10.366;2022-09-13T05:14:18;2.47;;;1.65;;
43606;SDS011;29197;44.788;10.366;2022-09-13T05:17:07;1.30;;;1.20;;
43606;SDS011;29197;44.788;10.366;2022-09-13T05:19:57;1.55;;;1.30;;
43606;SDS011;29197;44.788;10.366;2022-09-13T05:22:46;4.32;;;1.80;;
43606;SDS011;29197;44.788;10.366;2022-09-13T05:25:35;2.22;;;1.38;;
43606;SDS011;29197;44.788;10.366;2022-09-13T05:28:26;4.80;;;1.70;;
43606;SDS011;29197;44.788;10.366;2022-09-13T05:31:18;3.15;;;1.65;;
43606;SDS011;29197;44.788;10.366;2022-09-13T05:34:09;2.55;;;1.48;;
43606;SDS011;29197;44.788;10.366;2022-09-13T05:36:59;2.42;;;1.48;;
43606;SDS011;29197;44.788;10.366;2022-09-13T05:39:49;1.55;;;1.33;;
43606;SDS011;29197;44.788;10.366;2022-09-13T05:42:58;3.55;;;1.42;;
43606;SDS011;29197;44.788;10.366;2022-09-13T05:45:47;6.05;;;1.75;;
43606;SDS011;29197;44.788;10.366;2022-09-13T05:48:38;3.15;;;1.70;;
43606;SDS011;29197;44.788;10.366;2022-09-13T05:51:28;4.53;;;1.45;;
43606;SDS011;29197;44.788;10.366;2022-09-13T05:54:17;3.78;;;1.80;;
43606;SDS011;29197;44.788;10.366;2022-09-13T05:57:05;3.13;;;1.55;;
43606;SDS011;29197;44.788;10.366;2022-09-13T05:59:54;2.28;;;1.40;;
43606;SDS011;29197;44.788;10.366;2022-09-13T06:02:44;3.08;;;2.00;;
43606;SDS011;29197;44.788;10.366;2022-09-13T06:05:34;4.22;;;1.75;;
43606;SDS011;29197;44.788;10.366;2022-09-13T06:08:23;6.45;;;1.92;;
43606;SDS011;29197;44.788;10.366;2022-09-13T06:11:13;5.75;;;1.23;;
43606;SDS011;29197;44.788;10.366;2022-09-13T06:14:03;3.20;;;1.65;;
43606;SDS011;29197;44.788;10.366;2022-09-13T06:16:51;3.78;;;1.48;;
43606;SDS011;29197;44.788;10.366;2022-09-13T06:19:40;3.78;;;1.42;;
43606;SDS011;29197;44.788;10.366;2022-09-13T06:22:31;5.57;;;1.77;;
43606;SDS011;29197;44.788;10.366;2022-09-13T06:25:20;3.17;;;1.25;;
43606;SDS011;29197;44.788;10.366;2022-09-13T06:28:09;1.40;;;1.17;;
43606;SDS011;29197;44.788;10.366;2022-09-13T06:30:59;3.45;;;1.50;;
43606;SDS011;29197;44.788;10.366;2022-09-13T06:33:53;2.97;;;1.70;;
43606;SDS011;29197;44.788;10.366;2022-09-13T06:36:44;2.40;;;1.23;;
43606;SDS011;29197;44.788;10.366;2022-09-13T06:39:35;3.03;;;1.25;;
43606;SDS011;29197;44.788;10.366;2022-09-13T06:42:24;2.70;;;1.50;;
43606;SDS011;29197;44.788;10.366;2022-09-13T06:45:13;2.83;;;1.38;;
43606;SDS011;29197;44.788;10.366;2022-09-13T06:48:03;8.93;;;1.83;;
43606;SDS011;29197;44.788;10.366;2022-09-13T06:50:52;4.13;;;1.42;;
43606;SDS011;29197;44.788;10.366;2022-09-13T06:53:45;2.03;;;1.13;;
43606;SDS011;29197;44.788;10.366;2022-09-13T06:56:36;2.05;;;1.40;;
43606;SDS011;29197;44.788;10.366;2022-09-13T06:59:25;6.88;;;1.70;;
43606;SDS011;29197;44.788;10.366;2022-09-13T07:02:15;3.17;;;1.60;;
43606;SDS011;29197;44.788;10.366;2022-09-13T07:05:05;2.38;;;1.58;;
43606;SDS011;29197;44.788;10.366;2022-09-13T07:07:54;2.78;;;1.40;;
43606;SDS011;29197;44.788;10.366;2022-09-13T07:10:43;3.20;;;1.63;;
43606;SDS011;29197;44.788;10.366;2022-09-13T07:13:34;3.67;;;2.42;;
43606;SDS011;29197;44.788;10.366;2022-09-13T07:16:23;3.03;;;1.25;;
43606;SDS011;29197;44.788;10.366;2022-09-13T07:19:14;3.38;;;1.50;;
43606;SDS011;29197;44.788;10.366;2022-09-13T07:22:04;1.38;;;1.27;;
43606;SDS011;29197;44.788;10.366;2022-09-13T07:24:54;3.25;;;1.45;;
43606;SDS011;29197;44.788;10.366;2022-09-13T07:27:43;3.45;;;1.95;;
43606;SDS011;29197;44.788;10.366;2022-09-13T07:33:24;2.70;;;1.60;;
43606;SDS011;29197;44.788;10.366;2022-09-13T07:36:13;3.97;;;1.73;;
43606;SDS011;29197;44.788;10.366;2022-09-13T07:39:02;4.57;;;2.05;;
43606;SDS011;29197;44.788;10.366;2022-09-13T07:41:52;7.10;;;2.20;;
43606;SDS011;29197;44.788;10.366;2022-09-13T07:44:41;4.25;;;2.90;;
43606;SDS011;29197;44.788;10.366;2022-09-13T07:47:33;5.90;;;3.88;;
43606;SDS011;29197;44.788;10.366;2022-09-13T07:50:22;5.13;;;3.10;;
43606;SDS011;29197;44.788;10.366;2022-09-13T07:53:11;7.45;;;3.17;;
43606;SDS011;29197;44.788;10.366;2022-09-13T07:56:00;4.18;;;2.67;;
43606;SDS011;29197;44.788;10.366;2022-09-13T07:58:52;4.38;;;2.50;;
43606;SDS011;29197;44.788;10.366;2022-09-13T08:01:42;5.45;;;3.20;;
43606;SDS011;29197;44.788;10.366;2022-09-13T08:04:34;8.50;;;3.90;;
43606;SDS011;29197;44.788;10.366;2022-09-13T08:07:23;5.75;;;3.53;;
43606;SDS011;29197;44.788;10.366;2022-09-13T08:10:12;12.18;;;3.42;;
43606;SDS011;29197;44.788;10.366;2022-09-13T08:13:01;7.38;;;3.38;;
43606;SDS011;29197;44.788;10.366;2022-09-13T08:15:50;4.47;;;2.90;;
43606;SDS011;29197;44.788;10.366;2022-09-13T08:18:42;4.15;;;2.95;;
43606;SDS011;29197;44.788;10.366;2022-09-13T08:21:34;4.05;;;2.40;;
43606;SDS011;29197;44.788;10.366;2022-09-13T08:24:23;10.48;;;3.53;;
43606;SDS011;29197;44.788;10.366;2022-09-13T08:27:12;5.00;;;3.35;;
43606;SDS011;29197;44.788;10.366;2022-09-13T08:30:01;3.90;;;2.83;;
43606;SDS011;29197;44.788;10.366;2022-09-13T08:32:51;4.82;;;2.67;;
43606;SDS011;29197;44.788;10.366;2022-09-13T08:35:40;7.00;;;2.38;;
43606;SDS011;29197;44.788;10.366;2022-09-13T08:38:31;7.28;;;2.80;;
43606;SDS011;29197;44.788;10.366;2022-09-13T08:41:24;3.80;;;2.40;;
43606;SDS011;29197;44.788;10.366;2022-09-13T08:44:16;5.47;;;2.63;;
43606;SDS011;29197;44.788;10.366;2022-09-13T08:47:21;7.47;;;3.28;;
43606;SDS011;29197;44.788;10.366;2022-09-13T08:50:18;7.72;;;2.65;;
43606;SDS011;29197;44.788;10.366;2022-09-13T08:53:14;5.95;;;2.42;;
43606;SDS011;29197;44.788;10.366;2022-09-13T08:56:08;5.80;;;2.25;;
43606;SDS011;29197;44.788;10.366;2022-09-13T08:59:02;7.32;;;3.30;;
43606;SDS011;29197;44.788;10.366;2022-09-13T09:02:08;4.40;;;2.83;;
43606;SDS011;29197;44.788;10.366;2022-09-13T09:05:10;7.80;;;3.70;;
43606;SDS011;29197;44.788;10.366;2022-09-13T09:08:05;6.85;;;3.80;;
43606;SDS011;29197;44.788;10.366;2022-09-13T09:11:01;5.18;;;2.83;;
43606;SDS011;29197;44.788;10.366;2022-09-13T09:13:56;9.73;;;4.20;;
43606;SDS011;29197;44.788;10.366;2022-09-13T09:16:52;6.93;;;4.70;;
43606;SDS011;29197;44.788;10.366;2022-09-13T09:19:45;9.48;;;3.63;;
43606;SDS011;29197;44.788;10.366;2022-09-13T09:22:36;8.05;;;4.97;;
43606;SDS011;29197;44.788;10.366;2022-09-13T09:25:26;11.85;;;7.05;;
43606;SDS011;29197;44.788;10.366;2022-09-13T09:28:15;11.88;;;5.07;;
43606;SDS011;29197;44.788;10.366;2022-09-13T09:31:07;6.50;;;3.88;;
43606;SDS011;29197;44.788;10.366;2022-09-13T09:34:06;7.10;;;4.05;;
43606;SDS011;29197;44.788;10.366;2022-09-13T09:37:03;11.82;;;5.13;;
43606;SDS011;29197;44.788;10.366;2022-09-13T09:39:59;9.43;;;3.92;;
43606;SDS011;29197;44.788;10.366;2022-09-13T09:42:50;8.70;;;5.10;;
43606;SDS011;29197;44.788;10.366;2022-09-13T09:45:40;7.25;;;4.22;;
43606;SDS011;29197;44.788;10.366;2022-09-13T09:48:35;6.80;;;4.75;;
43606;SDS011;29197;44.788;10.366;2022-09-13T09:51:28;4.75;;;3.60;;
43606;SDS011;29197;44.788;10.366;2022-09-13T09:54:18;8.65;;;5.10;;
43606;SDS011;29197;44.788;10.366;2022-09-13T09:57:09;7.50;;;4.53;;
43606;SDS011;29197;44.788;10.366;2022-09-13T10:00:08;18.08;;;5.47;;
43606;SDS011;29197;44.788;10.366;2022-09-13T10:02:58;7.88;;;5.00;;
43606;SDS011;29197;44.788;10.366;2022-09-13T10:05:50;8.48;;;4.45;;
43606;SDS011;29197;44.788;10.366;2022-09-13T10:08:39;6.80;;;4.93;;
43606;SDS011;29197;44.788;10.366;2022-09-13T10:11:42;6.78;;;4.68;;
43606;SDS011;29197;44.788;10.366;2022-09-13T10:14:36;5.35;;;3.10;;
43606;SDS011;29197;44.788;10.366;2022-09-13T10:17:26;8.05;;;4.10;;
43606;SDS011;29197;44.788;10.366;2022-09-13T10:20:19;7.97;;;6.22;;
43606;SDS011;29197;44.788;10.366;2022-09-13T10:23:19;9.95;;;3.22;;
43606;SDS011;29197;44.788;10.366;2022-09-13T10:26:09;7.82;;;4.63;;
43606;SDS011;29197;44.788;10.366;2022-09-13T10:28:59;3.28;;;2.20;;
43606;SDS011;29197;44.788;10.366;2022-09-13T10:31:53;3.50;;;2.05;;
43606;SDS011;29197;44.788;10.366;2022-09-13T10:34:44;4.03;;;3.03;;
43606;SDS011;29197;44.788;10.366;2022-09-13T10:37:35;5.70;;;3.03;;
43606;SDS011;29197;44.788;10.366;2022-09-13T10:40:31;7.30;;;4.35;;
43606;SDS011;29197;44.788;10.366;2022-09-13T10:43:25;5.13;;;2.45;;
43606;SDS011;29197;44.788;10.366;2022-09-13T10:46:20;3.20;;;1.83;;
43606;SDS011;29197;44.788;10.366;2022-09-13T10:52:24;4.00;;;2.05;;
43606;SDS011;29197;44.788;10.366;2022-09-13T10:55:27;3.35;;;2.50;;
43606;SDS011;29197;44.788;10.366;2022-09-13T10:58:20;2.80;;;1.98;;
43606;SDS011;29197;44.788;10.366;2022-09-13T11:01:26;6.28;;;2.17;;
43606;SDS011;29197;44.788;10.366;2022-09-13T11:04:42;8.05;;;4.13;;
43606;SDS011;29197;44.788;10.366;2022-09-13T11:10:52;6.78;;;2.35;;
43606;SDS011;29197;44.788;10.366;2022-09-13T11:13:48;4.95;;;2.13;;
43606;SDS011;29197;44.788;10.366;2022-09-13T11:16:43;7.15;;;4.45;;
43606;SDS011;29197;44.788;10.366;2022-09-13T11:19:37;2.92;;;2.25;;
43606;SDS011;29197;44.788;10.366;2022-09-13T11:22:36;5.18;;;2.90;;
43606;SDS011;29197;44.788;10.366;2022-09-13T11:25:31;5.18;;;2.50;;
43606;SDS011;29197;44.788;10.366;2022-09-13T11:28:34;4.47;;;2.55;;
43606;SDS011;29197;44.788;10.366;2022-09-13T11:31:33;3.92;;;2.03;;
43606;SDS011;29197;44.788;10.366;2022-09-13T11:34:31;3.33;;;1.95;;
43606;SDS011;29197;44.788;10.366;2022-09-13T11:37:27;4.18;;;2.22;;
43606;SDS011;29197;44.788;10.366;2022-09-13T11:40:38;3.85;;;2.08;;
43606;SDS011;29197;44.788;10.366;2022-09-13T11:43:42;6.70;;;3.55;;
43606;SDS011;29197;44.788;10.366;2022-09-13T11:46:42;6.55;;;3.00;;
43606;SDS011;29197;44.788;10.366;2022-09-13T11:53:03;5.10;;;3.10;;
43606;SDS011;29197;44.788;10.366;2022-09-13T11:56:02;4.43;;;1.60;;
43606;SDS011;29197;44.788;10.366;2022-09-13T11:58:58;7.55;;;2.88;;
43606;SDS011;29197;44.788;10.366;2022-09-13T12:02:01;3.42;;;2.08;;
43606;SDS011;29197;44.788;10.366;2022-09-13T12:04:53;5.18;;;2.33;;
43606;SDS011;29197;44.788;10.366;2022-09-13T12:08:04;3.33;;;1.55;;
43606;SDS011;29197;44.788;10.366;2022-09-13T12:10:55;3.65;;;2.22;;
43606;SDS011;29197;44.788;10.366;2022-09-13T12:13:46;3.90;;;3.28;;
43606;SDS011;29197;44.788;10.366;2022-09-13T12:16:39;5.97;;;2.00;;
43606;SDS011;29197;44.788;10.366;2022-09-13T12:19:32;3.53;;;2.50;;
43606;SDS011;29197;44.788;10.366;2022-09-13T12:22:25;3.50;;;2.05;;
43606;SDS011;29197;44.788;10.366;2022-09-13T12:25:18;3.80;;;1.85;;
43606;SDS011;29197;44.788;10.366;2022-09-13T12:28:12;1.83;;;1.60;;
43606;SDS011;29197;44.788;10.366;2022-09-13T12:31:06;2.03;;;1.60;;
43606;SDS011;29197;44.788;10.366;2022-09-13T12:34:04;2.30;;;1.73;;
43606;SDS011;29197;44.788;10.366;2022-09-13T12:37:06;2.60;;;1.88;;
43606;SDS011;29197;44.788;10.366;2022-09-13T12:40:09;3.55;;;1.75;;
43606;SDS011;29197;44.788;10.366;2022-09-13T12:43:09;1.35;;;1.20;;
43606;SDS011;29197;44.788;10.366;2022-09-13T12:46:21;1.52;;;1.27;;
43606;SDS011;29197;44.788;10.366;2022-09-13T12:49:27;3.47;;;2.03;;
43606;SDS011;29197;44.788;10.366;2022-09-13T12:52:29;2.00;;;1.85;;
43606;SDS011;29197;44.788;10.366;2022-09-13T12:58:52;3.55;;;1.10;;
43606;SDS011;29197;44.788;10.366;2022-09-13T13:02:18;2.22;;;1.20;;
43606;SDS011;29197;44.788;10.366;2022-09-13T13:05:21;2.33;;;1.58;;
43606;SDS011;29197;44.788;10.366;2022-09-13T13:08:21;5.78;;;2.95;;
43606;SDS011;29197;44.788;10.366;2022-09-13T13:11:15;1.88;;;1.13;;
43606;SDS011;29197;44.788;10.366;2022-09-13T13:14:21;2.45;;;1.33;;
43606;SDS011;29197;44.788;10.366;2022-09-13T13:17:34;2.17;;;1.48;;
43606;SDS011;29197;44.788;10.366;2022-09-13T13:20:43;3.45;;;1.50;;
43606;SDS011;29197;44.788;10.366;2022-09-13T13:23:35;1.85;;;1.15;;
43606;SDS011;29197;44.788;10.366;2022-09-13T13:29:32;1.58;;;1.10;;
43606;SDS011;29197;44.788;10.366;2022-09-13T13:32:22;2.15;;;1.10;;
43606;SDS011;29197;44.788;10.366;2022-09-13T13:35:24;1.45;;;1.13;;
43606;SDS011;29197;44.788;10.366;2022-09-13T13:41:38;1.80;;;1.17;;
43606;SDS011;29197;44.788;10.366;2022-09-13T13:54:29;1.42;;;1.00;;
43606;SDS011;29197;44.788;10.366;2022-09-13T13:57:39;1.08;;;0.90;;
43606;SDS011;29197;44.788;10.366;2022-09-13T14:00:40;1.67;;;1.10;;
43606;SDS011;29197;44.788;10.366;2022-09-13T14:03:41;2.05;;;1.10;;
43606;SDS011;29197;44.788;10.366;2022-09-13T14:06:41;2.70;;;1.00;;
43606;SDS011;29197;44.788;10.366;2022-09-13T14:09:42;1.40;;;1.00;;
43606;SDS011;29197;44.788;10.366;2022-09-13T14:12:44;2.15;;;1.20;;
43606;SDS011;29197;44.788;10.366;2022-09-13T14:15:39;3.10;;;1.65;;
43606;SDS011;29197;44.788;10.366;2022-09-13T14:18:40;3.55;;;1.10;;
43606;SDS011;29197;44.788;10.366;2022-09-13T14:21:51;2.00;;;1.40;;
43606;SDS011;29197;44.788;10.366;2022-09-13T14:24:55;1.10;;;1.00;;
43606;SDS011;29197;44.788;10.366;2022-09-13T14:27:45;1.00;;;0.90;;
43606;SDS011;29197;44.788;10.366;2022-09-13T14:30:36;3.28;;;1.40;;
43606;SDS011;29197;44.788;10.366;2022-09-13T14:33:26;1.10;;;1.00;;
43606;SDS011;29197;44.788;10.366;2022-09-13T14:36:19;3.33;;;1.27;;
43606;SDS011;29197;44.788;10.366;2022-09-13T14:39:09;1.45;;;1.13;;
43606;SDS011;29197;44.788;10.366;2022-09-13T14:42:00;3.75;;;1.40;;
43606;SDS011;29197;44.788;10.366;2022-09-13T14:44:58;4.30;;;1.30;;
43606;SDS011;29197;44.788;10.366;2022-09-13T14:47:49;0.98;;;0.98;;
43606;SDS011;29197;44.788;10.366;2022-09-13T14:50:48;1.05;;;0.95;;
43606;SDS011;29197;44.788;10.366;2022-09-13T14:53:42;3.10;;;1.10;;
43606;SDS011;29197;44.788;10.366;2022-09-13T14:56:34;1.48;;;1.13;;
43606;SDS011;29197;44.788;10.366;2022-09-13T14:59:30;1.83;;;1.10;;
43606;SDS011;29197;44.788;10.366;2022-09-13T15:02:22;1.55;;;1.20;;
43606;SDS011;29197;44.788;10.366;2022-09-13T15:05:13;2.40;;;1.20;;
43606;SDS011;29197;44.788;10.366;2022-09-13T15:11:12;1.95;;;1.05;;
43606;SDS011;29197;44.788;10.366;2022-09-13T15:14:15;1.38;;;0.95;;
43606;SDS011;29197;44.788;10.366;2022-09-13T15:17:12;2.38;;;1.40;;
43606;SDS011;29197;44.788;10.366;2022-09-13T15:20:02;4.40;;;1.30;;
43606;SDS011;29197;44.788;10.366;2022-09-13T15:22:52;1.85;;;1.08;;
43606;SDS011;29197;44.788;10.366;2022-09-13T15:25:46;1.20;;;1.00;;
43606;SDS011;29197;44.788;10.366;2022-09-13T15:28:45;1.73;;;1.17;;
43606;SDS011;29197;44.788;10.366;2022-09-13T15:31:36;2.55;;;1.10;;
43606;SDS011;29197;44.788;10.366;2022-09-13T15:34:27;4.07;;;1.48;;
43606;SDS011;29197;44.788;10.366;2022-09-13T15:37:16;1.30;;;1.17;;
43606;SDS011;29197;44.788;10.366;2022-09-13T15:40:13;1.83;;;1.10;;
43606;SDS011;29197;44.788;10.366;2022-09-13T15:43:04;2.53;;;1.50;;
43606;SDS011;29197;44.788;10.366;2022-09-13T15:45:55;1.67;;;1.23;;
43606;SDS011;29197;44.788;10.366;2022-09-13T15:48:47;2.28;;;0.90;;
43606;SDS011;29197;44.788;10.366;2022-09-13T15:51:41;4.45;;;1.13;;
43606;SDS011;29197;44.788;10.366;2022-09-13T15:54:31;1.90;;;1.38;;
43606;SDS011;29197;44.788;10.366;2022-09-13T15:57:21;2.85;;;1.23;;
43606;SDS011;29197;44.788;10.366;2022-09-13T16:00:13;2.28;;;1.52;;
43606;SDS011;29197;44.788;10.366;2022-09-13T16:03:03;2.45;;;1.30;;
43606;SDS011;29197;44.788;10.366;2022-09-13T16:05:52;2.90;;;1.10;;
43606;SDS011;29197;44.788;10.366;2022-09-13T16:08:42;2.10;;;1.30;;
43606;SDS011;29197;44.788;10.366;2022-09-13T16:11:31;2.35;;;1.63;;
43606;SDS011;29197;44.788;10.366;2022-09-13T16:14:20;3.65;;;1.67;;
43606;SDS011;29197;44.788;10.366;2022-09-13T16:17:10;2.10;;;1.40;;
43606;SDS011;29197;44.788;10.366;2022-09-13T16:19:59;4.40;;;1.60;;
43606;SDS011;29197;44.788;10.366;2022-09-13T16:22:49;4.22;;;1.48;;
43606;SDS011;29197;44.788;10.366;2022-09-13T16:25:39;2.10;;;1.30;;
43606;SDS011;29197;44.788;10.366;2022-09-13T16:28:29;2.33;;;1.02;;
43606;SDS011;29197;44.788;10.366;2022-09-13T16:31:18;2.42;;;1.38;;
43606;SDS011;29197;44.788;10.366;2022-09-13T16:34:08;2.83;;;1.20;;
43606;SDS011;29197;44.788;10.366;2022-09-13T16:36:57;4.75;;;1.20;;
43606;SDS011;29197;44.788;10.366;2022-09-13T16:39:47;2.38;;;1.40;;
43606;SDS011;29197;44.788;10.366;2022-09-13T16:42:37;1.90;;;1.35;;
43606;SDS011;29197;44.788;10.366;2022-09-13T16:45:26;2.47;;;1.40;;
43606;SDS011;29197;44.788;10.366;2022-09-13T16:48:16;2.45;;;1.40;;
43606;SDS011;29197;44.788;10.366;2022-09-13T16:51:05;1.25;;;1.10;;
43606;SDS011;29197;44.788;10.366;2022-09-13T16:53:56;1.58;;;1.08;;
43606;SDS011;29197;44.788;10.366;2022-09-13T16:56:46;3.30;;;1.20;;
43606;SDS011;29197;44.788;10.366;2022-09-13T16:59:37;2.30;;;1.45;;
43606;SDS011;29197;44.788;10.366;2022-09-13T17:02:26;2.35;;;1.35;;
43606;SDS011;29197;44.788;10.366;2022-09-13T17:05:16;2.88;;;1.20;;
43606;SDS011;29197;44.788;10.366;2022-09-13T17:08:05;2.45;;;1.35;;
43606;SDS011;29197;44.788;10.366;2022-09-13T17:10:55;3.88;;;1.90;;
43606;SDS011;29197;44.788;10.366;2022-09-13T17:13:44;4.18;;;1.65;;
43606;SDS011;29197;44.788;10.366;2022-09-13T17:16:35;5.68;;;1.95;;
43606;SDS011;29197;44.788;10.366;2022-09-13T17:19:25;4.82;;;1.30;;
43606;SDS011;29197;44.788;10.366;2022-09-13T17:22:17;2.63;;;1.30;;
43606;SDS011;29197;44.788;10.366;2022-09-13T17:25:06;3.33;;;1.33;;
43606;SDS011;29197;44.788;10.366;2022-09-13T17:27:56;2.25;;;1.55;;
43606;SDS011;29197;44.788;10.366;2022-09-13T17:30:45;3.58;;;1.65;;
43606;SDS011;29197;44.788;10.366;2022-09-13T17:33:36;4.25;;;1.40;;
43606;SDS011;29197;44.788;10.366;2022-09-13T17:36:25;3.55;;;1.52;;
43606;SDS011;29197;44.788;10.366;2022-09-13T17:39:14;3.38;;;1.30;;
43606;SDS011;29197;44.788;10.366;2022-09-13T17:42:05;2.58;;;1.50;;
43606;SDS011;29197;44.788;10.366;2022-09-13T17:44:54;3.83;;;1.25;;